sensor_id;sensor_type;location;lat;lon;timestamp;P1;durP1;ratioP1;P2;durP2;ratioP2
66095;SDS011;53861;53.422;14.530;2023-06-22T00:00:22;11.65;;;6.10;;
66095;SDS011;53861;53.422;14.530;2023-06-22T00:02:49;13.02;;;6.63;;
66095;SDS011;53861;53.422;14.530;2023-06-22T00:05:18;10.27;;;6.47;;
66095;SDS011;53861;53.422;14.530;2023-06-22T00:07:45;13.18;;;6.20;;
66095;SDS011;53861;53.422;14.530;2023-06-22T00:10:12;11.50;;;6.10;;
66095;SDS011;53861;53.422;14.530;2023-06-22T00:12:40;11.52;;;6.18;;
66095;SDS011;53861;53.422;14.530;2023-06-22T00:15:07;13.05;;;6.43;;
66095;SDS011;53861;53.422;14.530;2023-06-22T00:17:35;12.52;;;6.90;;
66095;SDS011;53861;53.422;14.530;2023-06-22T00:20:03;12.15;;;6.72;;
66095;SDS011;53861;53.422;14.530;2023-06-22T00:22:34;13.13;;;7.28;;
66095;SDS011;53861;53.422;14.530;2023-06-22T00:25:06;12.75;;;6.75;;
66095;SDS011;53861;53.422;14.530;2023-06-22T00:27:34;11.35;;;6.65;;
66095;SDS011;53861;53.422;14.530;2023-06-22T00:30:01;12.40;;;6.90;;
66095;SDS011;53861;53.422;14.530;2023-06-22T00:32:29;11.85;;;7.00;;
66095;SDS011;53861;53.422;14.530;2023-06-22T00:34:56;10.63;;;6.75;;
66095;SDS011;53861;53.422;14.530;2023-06-22T00:37:25;17.30;;;7.03;;
66095;SDS011;53861;53.422;14.530;2023-06-22T00:39:56;9.20;;;6.40;;
66095;SDS011;53861;53.422;14.530;2023-06-22T00:42:24;10.85;;;7.22;;
66095;SDS011;53861;53.422;14.530;2023-06-22T00:44:52;10.82;;;7.05;;
66095;SDS011;53861;53.422;14.530;2023-06-22T00:47:20;11.93;;;6.88;;
66095;SDS011;53861;53.422;14.530;2023-06-22T00:49:48;10.57;;;7.13;;
66095;SDS011;53861;53.422;14.530;2023-06-22T00:52:18;14.25;;;6.95;;
66095;SDS011;53861;53.422;14.530;2023-06-22T00:54:47;14.90;;;7.65;;
66095;SDS011;53861;53.422;14.530;2023-06-22T00:57:17;14.77;;;7.60;;
66095;SDS011;53861;53.422;14.530;2023-06-22T00:59:45;12.98;;;7.93;;
66095;SDS011;53861;53.422;14.530;2023-06-22T01:02:15;13.80;;;7.70;;
66095;SDS011;53861;53.422;14.530;2023-06-22T01:04:42;13.32;;;8.00;;
66095;SDS011;53861;53.422;14.530;2023-06-22T01:07:10;12.23;;;7.30;;
66095;SDS011;53861;53.422;14.530;2023-06-22T01:09:44;11.23;;;7.03;;
66095;SDS011;53861;53.422;14.530;2023-06-22T01:12:21;13.23;;;7.38;;
66095;SDS011;53861;53.422;14.530;2023-06-22T01:14:50;12.25;;;7.72;;
66095;SDS011;53861;53.422;14.530;2023-06-22T01:17:24;13.90;;;7.60;;
66095;SDS011;53861;53.422;14.530;2023-06-22T01:19:54;14.20;;;7.97;;
66095;SDS011;53861;53.422;14.530;2023-06-22T01:22:23;12.93;;;7.90;;
66095;SDS011;53861;53.422;14.530;2023-06-22T01:24:57;16.57;;;8.13;;
66095;SDS011;53861;53.422;14.530;2023-06-22T01:27:43;13.63;;;7.88;;
66095;SDS011;53861;53.422;14.530;2023-06-22T01:30:21;13.52;;;7.53;;
66095;SDS011;53861;53.422;14.530;2023-06-22T01:32:51;14.52;;;8.15;;
66095;SDS011;53861;53.422;14.530;2023-06-22T01:35:20;14.85;;;8.30;;
66095;SDS011;53861;53.422;14.530;2023-06-22T01:37:48;13.48;;;7.78;;
66095;SDS011;53861;53.422;14.530;2023-06-22T01:40:19;13.13;;;7.97;;
66095;SDS011;53861;53.422;14.530;2023-06-22T01:42:48;16.83;;;8.02;;
66095;SDS011;53861;53.422;14.530;2023-06-22T01:45:18;13.75;;;8.45;;
66095;SDS011;53861;53.422;14.530;2023-06-22T01:47:47;14.20;;;8.23;;
66095;SDS011;53861;53.422;14.530;2023-06-22T01:50:15;13.43;;;8.65;;
66095;SDS011;53861;53.422;14.530;2023-06-22T01:52:42;14.25;;;8.70;;
66095;SDS011;53861;53.422;14.530;2023-06-22T01:55:10;12.05;;;8.18;;
66095;SDS011;53861;53.422;14.530;2023-06-22T01:57:37;13.88;;;8.73;;
66095;SDS011;53861;53.422;14.530;2023-06-22T02:00:07;18.10;;;8.60;;
66095;SDS011;53861;53.422;14.530;2023-06-22T02:05:11;13.70;;;8.70;;
66095;SDS011;53861;53.422;14.530;2023-06-22T02:07:43;16.30;;;9.00;;
66095;SDS011;53861;53.422;14.530;2023-06-22T02:10:14;14.50;;;8.93;;
66095;SDS011;53861;53.422;14.530;2023-06-22T02:12:44;13.45;;;8.50;;
66095;SDS011;53861;53.422;14.530;2023-06-22T02:15:12;13.80;;;8.48;;
66095;SDS011;53861;53.422;14.530;2023-06-22T02:17:40;14.05;;;8.77;;
66095;SDS011;53861;53.422;14.530;2023-06-22T02:20:13;17.10;;;8.98;;
66095;SDS011;53861;53.422;14.530;2023-06-22T02:22:41;14.63;;;9.35;;
66095;SDS011;53861;53.422;14.530;2023-06-22T02:25:09;18.73;;;9.57;;
66095;SDS011;53861;53.422;14.530;2023-06-22T02:27:36;15.52;;;9.02;;
66095;SDS011;53861;53.422;14.530;2023-06-22T02:30:06;14.85;;;8.90;;
66095;SDS011;53861;53.422;14.530;2023-06-22T02:32:34;14.40;;;8.88;;
66095;SDS011;53861;53.422;14.530;2023-06-22T02:35:02;16.98;;;9.20;;
66095;SDS011;53861;53.422;14.530;2023-06-22T02:37:32;16.63;;;8.70;;
66095;SDS011;53861;53.422;14.530;2023-06-22T02:39:59;14.70;;;9.45;;
66095;SDS011;53861;53.422;14.530;2023-06-22T02:42:27;14.48;;;9.45;;
66095;SDS011;53861;53.422;14.530;2023-06-22T02:44:54;16.25;;;9.32;;
66095;SDS011;53861;53.422;14.530;2023-06-22T02:47:21;17.08;;;9.30;;
66095;SDS011;53861;53.422;14.530;2023-06-22T02:49:49;14.82;;;9.05;;
66095;SDS011;53861;53.422;14.530;2023-06-22T02:52:16;18.33;;;9.13;;
66095;SDS011;53861;53.422;14.530;2023-06-22T02:54:45;15.95;;;8.93;;
66095;SDS011;53861;53.422;14.530;2023-06-22T02:57:12;16.80;;;9.30;;
66095;SDS011;53861;53.422;14.530;2023-06-22T02:59:40;16.30;;;9.52;;
66095;SDS011;53861;53.422;14.530;2023-06-22T03:02:07;17.05;;;10.27;;
66095;SDS011;53861;53.422;14.530;2023-06-22T03:04:35;17.95;;;10.23;;
66095;SDS011;53861;53.422;14.530;2023-06-22T03:07:04;16.95;;;9.70;;
66095;SDS011;53861;53.422;14.530;2023-06-22T03:09:32;18.77;;;11.00;;
66095;SDS011;53861;53.422;14.530;2023-06-22T03:12:00;17.13;;;10.32;;
66095;SDS011;53861;53.422;14.530;2023-06-22T03:14:28;17.67;;;9.52;;
66095;SDS011;53861;53.422;14.530;2023-06-22T03:16:55;16.63;;;10.15;;
66095;SDS011;53861;53.422;14.530;2023-06-22T03:19:28;17.27;;;10.07;;
66095;SDS011;53861;53.422;14.530;2023-06-22T03:21:57;21.30;;;11.93;;
66095;SDS011;53861;53.422;14.530;2023-06-22T03:24:24;20.95;;;11.25;;
66095;SDS011;53861;53.422;14.530;2023-06-22T03:26:57;18.33;;;10.85;;
66095;SDS011;53861;53.422;14.530;2023-06-22T03:29:27;19.23;;;11.13;;
66095;SDS011;53861;53.422;14.530;2023-06-22T03:31:54;17.27;;;10.07;;
66095;SDS011;53861;53.422;14.530;2023-06-22T03:34:22;16.77;;;10.23;;
66095;SDS011;53861;53.422;14.530;2023-06-22T03:36:49;20.30;;;10.95;;
66095;SDS011;53861;53.422;14.530;2023-06-22T03:39:16;19.60;;;10.35;;
66095;SDS011;53861;53.422;14.530;2023-06-22T03:41:44;24.38;;;12.27;;
66095;SDS011;53861;53.422;14.530;2023-06-22T03:44:11;15.40;;;10.02;;
66095;SDS011;53861;53.422;14.530;2023-06-22T03:46:40;16.35;;;10.70;;
66095;SDS011;53861;53.422;14.530;2023-06-22T03:49:08;21.35;;;10.77;;
66095;SDS011;53861;53.422;14.530;2023-06-22T03:51:36;19.70;;;11.00;;
66095;SDS011;53861;53.422;14.530;2023-06-22T03:54:04;22.63;;;12.13;;
66095;SDS011;53861;53.422;14.530;2023-06-22T03:56:32;21.02;;;12.00;;
66095;SDS011;53861;53.422;14.530;2023-06-22T03:58:59;19.38;;;12.57;;
66095;SDS011;53861;53.422;14.530;2023-06-22T04:01:26;26.17;;;12.65;;
66095;SDS011;53861;53.422;14.530;2023-06-22T04:03:56;20.38;;;12.25;;
66095;SDS011;53861;53.422;14.530;2023-06-22T04:06:24;23.05;;;12.95;;
66095;SDS011;53861;53.422;14.530;2023-06-22T04:08:51;32.13;;;12.65;;
66095;SDS011;53861;53.422;14.530;2023-06-22T04:11:19;26.70;;;12.75;;
66095;SDS011;53861;53.422;14.530;2023-06-22T04:13:46;22.27;;;12.60;;
66095;SDS011;53861;53.422;14.530;2023-06-22T04:16:14;23.60;;;12.07;;
66095;SDS011;53861;53.422;14.530;2023-06-22T04:18:42;21.73;;;12.45;;
66095;SDS011;53861;53.422;14.530;2023-06-22T04:21:11;20.58;;;11.82;;
66095;SDS011;53861;53.422;14.530;2023-06-22T04:23:38;22.10;;;11.90;;
66095;SDS011;53861;53.422;14.530;2023-06-22T04:26:05;21.58;;;11.85;;
66095;SDS011;53861;53.422;14.530;2023-06-22T04:28:33;24.60;;;11.80;;
66095;SDS011;53861;53.422;14.530;2023-06-22T04:31:01;22.75;;;11.05;;
66095;SDS011;53861;53.422;14.530;2023-06-22T04:33:28;20.55;;;10.75;;
66095;SDS011;53861;53.422;14.530;2023-06-22T04:35:56;21.52;;;10.50;;
66095;SDS011;53861;53.422;14.530;2023-06-22T04:38:25;19.63;;;11.23;;
66095;SDS011;53861;53.422;14.530;2023-06-22T04:40:52;23.85;;;10.90;;
66095;SDS011;53861;53.422;14.530;2023-06-22T04:43:20;20.45;;;11.00;;
66095;SDS011;53861;53.422;14.530;2023-06-22T04:45:47;19.02;;;10.43;;
66095;SDS011;53861;53.422;14.530;2023-06-22T04:48:18;24.40;;;13.15;;
66095;SDS011;53861;53.422;14.530;2023-06-22T04:50:45;22.67;;;11.48;;
66095;SDS011;53861;53.422;14.530;2023-06-22T04:53:13;17.70;;;10.73;;
66095;SDS011;53861;53.422;14.530;2023-06-22T04:55:41;17.98;;;10.02;;
66095;SDS011;53861;53.422;14.530;2023-06-22T04:58:11;20.02;;;10.38;;
66095;SDS011;53861;53.422;14.530;2023-06-22T05:00:38;21.55;;;9.75;;
66095;SDS011;53861;53.422;14.530;2023-06-22T05:03:06;18.10;;;10.30;;
66095;SDS011;53861;53.422;14.530;2023-06-22T05:05:36;17.30;;;9.85;;
66095;SDS011;53861;53.422;14.530;2023-06-22T05:08:05;20.55;;;10.38;;
66095;SDS011;53861;53.422;14.530;2023-06-22T05:10:32;17.80;;;9.40;;
66095;SDS011;53861;53.422;14.530;2023-06-22T05:13:01;17.90;;;9.95;;
66095;SDS011;53861;53.422;14.530;2023-06-22T05:15:34;22.90;;;9.38;;
66095;SDS011;53861;53.422;14.530;2023-06-22T05:18:05;22.60;;;11.05;;
66095;SDS011;53861;53.422;14.530;2023-06-22T05:20:33;17.33;;;9.27;;
66095;SDS011;53861;53.422;14.530;2023-06-22T05:23:01;19.65;;;9.02;;
66095;SDS011;53861;53.422;14.530;2023-06-22T05:25:29;15.35;;;8.50;;
66095;SDS011;53861;53.422;14.530;2023-06-22T05:27:58;20.20;;;8.98;;
66095;SDS011;53861;53.422;14.530;2023-06-22T05:30:27;16.25;;;8.65;;
66095;SDS011;53861;53.422;14.530;2023-06-22T05:32:54;15.70;;;8.07;;
66095;SDS011;53861;53.422;14.530;2023-06-22T05:35:21;13.60;;;7.68;;
66095;SDS011;53861;53.422;14.530;2023-06-22T05:37:49;17.10;;;7.80;;
66095;SDS011;53861;53.422;14.530;2023-06-22T05:40:18;15.35;;;7.97;;
66095;SDS011;53861;53.422;14.530;2023-06-22T05:42:45;17.77;;;7.15;;
66095;SDS011;53861;53.422;14.530;2023-06-22T05:45:12;13.85;;;6.07;;
66095;SDS011;53861;53.422;14.530;2023-06-22T05:47:41;12.43;;;6.10;;
66095;SDS011;53861;53.422;14.530;2023-06-22T05:50:09;12.73;;;6.28;;
66095;SDS011;53861;53.422;14.530;2023-06-22T05:52:39;14.00;;;6.18;;
66095;SDS011;53861;53.422;14.530;2023-06-22T05:55:07;11.23;;;6.22;;
66095;SDS011;53861;53.422;14.530;2023-06-22T05:57:35;14.55;;;6.10;;
66095;SDS011;53861;53.422;14.530;2023-06-22T06:00:02;12.75;;;6.57;;
66095;SDS011;53861;53.422;14.530;2023-06-22T06:02:32;14.32;;;6.75;;
66095;SDS011;53861;53.422;14.530;2023-06-22T06:05:02;13.95;;;6.72;;
66095;SDS011;53861;53.422;14.530;2023-06-22T06:07:30;13.90;;;6.05;;
66095;SDS011;53861;53.422;14.530;2023-06-22T06:10:01;15.05;;;7.00;;
66095;SDS011;53861;53.422;14.530;2023-06-22T06:12:28;15.80;;;6.35;;
66095;SDS011;53861;53.422;14.530;2023-06-22T06:14:55;12.93;;;6.20;;
66095;SDS011;53861;53.422;14.530;2023-06-22T06:17:24;12.07;;;5.82;;
66095;SDS011;53861;53.422;14.530;2023-06-22T06:19:51;11.38;;;6.00;;
66095;SDS011;53861;53.422;14.530;2023-06-22T06:22:20;10.95;;;5.57;;
66095;SDS011;53861;53.422;14.530;2023-06-22T06:24:49;14.27;;;6.25;;
66095;SDS011;53861;53.422;14.530;2023-06-22T06:27:20;12.00;;;5.00;;
66095;SDS011;53861;53.422;14.530;2023-06-22T06:29:56;12.40;;;5.00;;
66095;SDS011;53861;53.422;14.530;2023-06-22T06:32:23;11.68;;;4.88;;
66095;SDS011;53861;53.422;14.530;2023-06-22T06:34:51;11.30;;;4.60;;
66095;SDS011;53861;53.422;14.530;2023-06-22T06:37:18;9.15;;;4.60;;
66095;SDS011;53861;53.422;14.530;2023-06-22T06:39:47;15.15;;;5.97;;
66095;SDS011;53861;53.422;14.530;2023-06-22T06:42:17;12.68;;;5.45;;
66095;SDS011;53861;53.422;14.530;2023-06-22T06:44:45;14.30;;;6.20;;
66095;SDS011;53861;53.422;14.530;2023-06-22T06:47:13;8.60;;;5.30;;
66095;SDS011;53861;53.422;14.530;2023-06-22T06:49:40;10.07;;;5.40;;
66095;SDS011;53861;53.422;14.530;2023-06-22T06:52:07;12.15;;;5.05;;
66095;SDS011;53861;53.422;14.530;2023-06-22T06:54:37;10.23;;;4.50;;
66095;SDS011;53861;53.422;14.530;2023-06-22T06:57:06;9.18;;;4.50;;
66095;SDS011;53861;53.422;14.530;2023-06-22T06:59:39;15.95;;;4.38;;
66095;SDS011;53861;53.422;14.530;2023-06-22T07:02:06;7.95;;;4.20;;
66095;SDS011;53861;53.422;14.530;2023-06-22T07:07:18;7.47;;;3.60;;
66095;SDS011;53861;53.422;14.530;2023-06-22T07:15:22;16.38;;;5.95;;
66095;SDS011;53861;53.422;14.530;2023-06-22T07:17:50;7.30;;;3.90;;
66095;SDS011;53861;53.422;14.530;2023-06-22T07:20:17;8.75;;;3.65;;
66095;SDS011;53861;53.422;14.530;2023-06-22T07:22:45;13.18;;;3.50;;
66095;SDS011;53861;53.422;14.530;2023-06-22T07:25:13;7.43;;;3.30;;
66095;SDS011;53861;53.422;14.530;2023-06-22T07:27:44;6.78;;;3.03;;
66095;SDS011;53861;53.422;14.530;2023-06-22T07:30:14;7.63;;;3.20;;
66095;SDS011;53861;53.422;14.530;2023-06-22T07:32:42;9.38;;;4.45;;
66095;SDS011;53861;53.422;14.530;2023-06-22T07:35:09;8.40;;;3.50;;
66095;SDS011;53861;53.422;14.530;2023-06-22T07:37:37;11.88;;;3.45;;
66095;SDS011;53861;53.422;14.530;2023-06-22T07:40:05;6.55;;;3.40;;
66095;SDS011;53861;53.422;14.530;2023-06-22T07:42:36;7.77;;;3.90;;
66095;SDS011;53861;53.422;14.530;2023-06-22T07:45:04;9.93;;;3.55;;
66095;SDS011;53861;53.422;14.530;2023-06-22T07:47:36;8.40;;;3.85;;
66095;SDS011;53861;53.422;14.530;2023-06-22T07:50:04;7.35;;;3.80;;
66095;SDS011;53861;53.422;14.530;2023-06-22T07:52:33;8.45;;;3.30;;
66095;SDS011;53861;53.422;14.530;2023-06-22T07:55:04;8.68;;;3.65;;
66095;SDS011;53861;53.422;14.530;2023-06-22T07:57:31;8.68;;;2.80;;
66095;SDS011;53861;53.422;14.530;2023-06-22T07:59:59;6.68;;;2.70;;
66095;SDS011;53861;53.422;14.530;2023-06-22T08:02:27;5.90;;;2.90;;
66095;SDS011;53861;53.422;14.530;2023-06-22T08:04:56;5.72;;;3.03;;
66095;SDS011;53861;53.422;14.530;2023-06-22T08:07:23;5.38;;;2.47;;
66095;SDS011;53861;53.422;14.530;2023-06-22T08:09:51;6.80;;;2.70;;
66095;SDS011;53861;53.422;14.530;2023-06-22T08:12:18;7.18;;;2.47;;
66095;SDS011;53861;53.422;14.530;2023-06-22T08:14:46;8.02;;;2.50;;
66095;SDS011;53861;53.422;14.530;2023-06-22T08:17:13;5.32;;;2.45;;
66095;SDS011;53861;53.422;14.530;2023-06-22T08:19:40;6.03;;;1.98;;
66095;SDS011;53861;53.422;14.530;2023-06-22T08:22:09;7.78;;;2.72;;
66095;SDS011;53861;53.422;14.530;2023-06-22T08:24:37;5.30;;;2.47;;
66095;SDS011;53861;53.422;14.530;2023-06-22T08:27:06;6.50;;;2.40;;
66095;SDS011;53861;53.422;14.530;2023-06-22T08:29:34;7.00;;;3.53;;
66095;SDS011;53861;53.422;14.530;2023-06-22T08:32:02;8.57;;;4.88;;
66095;SDS011;53861;53.422;14.530;2023-06-22T08:34:30;7.72;;;2.78;;
66095;SDS011;53861;53.422;14.530;2023-06-22T08:36:58;6.90;;;2.50;;
66095;SDS011;53861;53.422;14.530;2023-06-22T08:39:26;13.32;;;5.80;;
66095;SDS011;53861;53.422;14.530;2023-06-22T08:41:54;6.07;;;2.90;;
66095;SDS011;53861;53.422;14.530;2023-06-22T08:44:21;8.45;;;2.53;;
66095;SDS011;53861;53.422;14.530;2023-06-22T08:46:50;6.45;;;2.88;;
66095;SDS011;53861;53.422;14.530;2023-06-22T08:49:22;17.95;;;6.10;;
66095;SDS011;53861;53.422;14.530;2023-06-22T08:51:49;13.57;;;6.20;;
66095;SDS011;53861;53.422;14.530;2023-06-22T08:54:19;14.02;;;5.38;;
66095;SDS011;53861;53.422;14.530;2023-06-22T08:56:48;10.23;;;5.82;;
66095;SDS011;53861;53.422;14.530;2023-06-22T08:59:15;11.45;;;4.82;;
66095;SDS011;53861;53.422;14.530;2023-06-22T09:01:43;10.90;;;5.10;;
66095;SDS011;53861;53.422;14.530;2023-06-22T09:04:11;9.93;;;4.50;;
66095;SDS011;53861;53.422;14.530;2023-06-22T09:06:38;8.73;;;3.63;;
66095;SDS011;53861;53.422;14.530;2023-06-22T09:09:10;8.20;;;4.28;;
66095;SDS011;53861;53.422;14.530;2023-06-22T09:11:39;12.13;;;4.38;;
66095;SDS011;53861;53.422;14.530;2023-06-22T09:14:08;11.40;;;4.72;;
66095;SDS011;53861;53.422;14.530;2023-06-22T09:16:36;18.05;;;4.63;;
66095;SDS011;53861;53.422;14.530;2023-06-22T09:19:03;10.80;;;4.75;;
66095;SDS011;53861;53.422;14.530;2023-06-22T09:21:31;8.10;;;2.72;;
66095;SDS011;53861;53.422;14.530;2023-06-22T09:23:58;4.47;;;2.35;;
66095;SDS011;53861;53.422;14.530;2023-06-22T09:26:26;6.50;;;2.50;;
66095;SDS011;53861;53.422;14.530;2023-06-22T09:28:54;8.65;;;2.67;;
66095;SDS011;53861;53.422;14.530;2023-06-22T09:31:23;6.15;;;2.40;;
66095;SDS011;53861;53.422;14.530;2023-06-22T09:33:52;6.70;;;2.72;;
66095;SDS011;53861;53.422;14.530;2023-06-22T09:36:20;16.73;;;2.85;;
66095;SDS011;53861;53.422;14.530;2023-06-22T09:38:47;10.95;;;2.20;;
66095;SDS011;53861;53.422;14.530;2023-06-22T09:41:21;6.38;;;3.00;;
66095;SDS011;53861;53.422;14.530;2023-06-22T09:43:48;5.20;;;2.50;;
66095;SDS011;53861;53.422;14.530;2023-06-22T09:46:16;6.40;;;2.70;;
66095;SDS011;53861;53.422;14.530;2023-06-22T09:48:45;8.77;;;2.72;;
66095;SDS011;53861;53.422;14.530;2023-06-22T09:51:12;5.28;;;2.25;;
66095;SDS011;53861;53.422;14.530;2023-06-22T09:53:39;3.70;;;2.05;;
66095;SDS011;53861;53.422;14.530;2023-06-22T09:56:06;3.97;;;2.10;;
66095;SDS011;53861;53.422;14.530;2023-06-22T09:58:39;4.75;;;2.35;;
66095;SDS011;53861;53.422;14.530;2023-06-22T10:01:07;10.13;;;2.70;;
66095;SDS011;53861;53.422;14.530;2023-06-22T10:03:34;6.07;;;2.35;;
66095;SDS011;53861;53.422;14.530;2023-06-22T10:06:03;9.05;;;3.50;;
66095;SDS011;53861;53.422;14.530;2023-06-22T10:08:30;10.93;;;2.80;;
66095;SDS011;53861;53.422;14.530;2023-06-22T10:10:57;11.00;;;2.80;;
66095;SDS011;53861;53.422;14.530;2023-06-22T10:13:25;6.57;;;2.38;;
66095;SDS011;53861;53.422;14.530;2023-06-22T10:15:52;4.50;;;2.33;;
66095;SDS011;53861;53.422;14.530;2023-06-22T10:18:20;5.68;;;2.47;;
66095;SDS011;53861;53.422;14.530;2023-06-22T10:20:48;5.93;;;2.47;;
66095;SDS011;53861;53.422;14.530;2023-06-22T10:23:18;4.55;;;2.40;;
66095;SDS011;53861;53.422;14.530;2023-06-22T10:25:46;6.53;;;2.15;;
66095;SDS011;53861;53.422;14.530;2023-06-22T10:28:14;9.57;;;2.80;;
66095;SDS011;53861;53.422;14.530;2023-06-22T10:30:41;5.07;;;2.20;;
66095;SDS011;53861;53.422;14.530;2023-06-22T10:33:09;40.53;;;6.15;;
66095;SDS011;53861;53.422;14.530;2023-06-22T10:35:37;37.47;;;5.15;;
66095;SDS011;53861;53.422;14.530;2023-06-22T10:38:05;19.27;;;4.40;;
66095;SDS011;53861;53.422;14.530;2023-06-22T10:40:37;12.15;;;3.08;;
66095;SDS011;53861;53.422;14.530;2023-06-22T10:43:15;8.68;;;2.50;;
66095;SDS011;53861;53.422;14.530;2023-06-22T10:45:43;9.95;;;3.08;;
66095;SDS011;53861;53.422;14.530;2023-06-22T10:48:10;5.85;;;2.40;;
66095;SDS011;53861;53.422;14.530;2023-06-22T10:50:38;5.75;;;2.45;;
66095;SDS011;53861;53.422;14.530;2023-06-22T10:53:05;5.70;;;2.50;;
66095;SDS011;53861;53.422;14.530;2023-06-22T10:55:33;6.25;;;2.42;;
66095;SDS011;53861;53.422;14.530;2023-06-22T10:58:01;8.80;;;3.30;;
66095;SDS011;53861;53.422;14.530;2023-06-22T11:00:29;35.40;;;4.55;;
66095;SDS011;53861;53.422;14.530;2023-06-22T11:02:56;13.13;;;2.92;;
66095;SDS011;53861;53.422;14.530;2023-06-22T11:05:24;4.90;;;2.60;;
66095;SDS011;53861;53.422;14.530;2023-06-22T11:07:51;13.82;;;3.70;;
66095;SDS011;53861;53.422;14.530;2023-06-22T11:10:18;7.95;;;2.67;;
66095;SDS011;53861;53.422;14.530;2023-06-22T11:12:46;5.18;;;2.88;;
66095;SDS011;53861;53.422;14.530;2023-06-22T11:15:14;10.15;;;2.85;;
66095;SDS011;53861;53.422;14.530;2023-06-22T11:17:42;16.15;;;3.22;;
66095;SDS011;53861;53.422;14.530;2023-06-22T11:20:10;6.43;;;2.70;;
66095;SDS011;53861;53.422;14.530;2023-06-22T11:22:38;24.85;;;4.63;;
66095;SDS011;53861;53.422;14.530;2023-06-22T11:25:05;5.88;;;3.03;;
66095;SDS011;53861;53.422;14.530;2023-06-22T11:27:34;6.60;;;2.90;;
66095;SDS011;53861;53.422;14.530;2023-06-22T11:30:01;7.65;;;2.80;;
66095;SDS011;53861;53.422;14.530;2023-06-22T11:32:30;12.85;;;3.47;;
66095;SDS011;53861;53.422;14.530;2023-06-22T11:34:58;6.80;;;2.85;;
66095;SDS011;53861;53.422;14.530;2023-06-22T11:37:25;6.32;;;3.13;;
66095;SDS011;53861;53.422;14.530;2023-06-22T11:39:52;8.50;;;3.47;;
66095;SDS011;53861;53.422;14.530;2023-06-22T11:42:20;6.28;;;3.13;;
66095;SDS011;53861;53.422;14.530;2023-06-22T11:44:49;11.20;;;4.45;;
66095;SDS011;53861;53.422;14.530;2023-06-22T11:47:16;9.43;;;4.40;;
66095;SDS011;53861;53.422;14.530;2023-06-22T11:49:45;10.13;;;5.05;;
66095;SDS011;53861;53.422;14.530;2023-06-22T11:52:12;11.23;;;4.57;;
66095;SDS011;53861;53.422;14.530;2023-06-22T11:54:40;11.45;;;7.65;;
66095;SDS011;53861;53.422;14.530;2023-06-22T11:57:07;10.30;;;4.88;;
66095;SDS011;53861;53.422;14.530;2023-06-22T11:59:34;11.48;;;4.28;;
66095;SDS011;53861;53.422;14.530;2023-06-22T12:02:02;8.13;;;4.00;;
66095;SDS011;53861;53.422;14.530;2023-06-22T12:04:31;8.88;;;4.32;;
66095;SDS011;53861;53.422;14.530;2023-06-22T12:07:00;9.20;;;4.45;;
66095;SDS011;53861;53.422;14.530;2023-06-22T12:09:28;10.23;;;5.13;;
66095;SDS011;53861;53.422;14.530;2023-06-22T12:11:55;8.10;;;4.00;;
66095;SDS011;53861;53.422;14.530;2023-06-22T12:14:22;8.48;;;4.65;;
66095;SDS011;53861;53.422;14.530;2023-06-22T12:16:49;9.63;;;4.47;;
66095;SDS011;53861;53.422;14.530;2023-06-22T12:19:17;9.20;;;4.60;;
66095;SDS011;53861;53.422;14.530;2023-06-22T12:21:46;8.50;;;4.50;;
66095;SDS011;53861;53.422;14.530;2023-06-22T12:24:15;8.20;;;4.40;;
66095;SDS011;53861;53.422;14.530;2023-06-22T12:26:43;8.32;;;4.90;;
66095;SDS011;53861;53.422;14.530;2023-06-22T12:29:11;7.45;;;4.80;;
66095;SDS011;53861;53.422;14.530;2023-06-22T12:31:41;9.80;;;4.60;;
66095;SDS011;53861;53.422;14.530;2023-06-22T12:34:08;8.68;;;4.53;;
66095;SDS011;53861;53.422;14.530;2023-06-22T12:36:39;10.68;;;5.07;;
66095;SDS011;53861;53.422;14.530;2023-06-22T12:39:09;7.57;;;4.68;;
66095;SDS011;53861;53.422;14.530;2023-06-22T12:42:01;8.70;;;4.57;;
66095;SDS011;53861;53.422;14.530;2023-06-22T12:44:28;6.68;;;4.25;;
66095;SDS011;53861;53.422;14.530;2023-06-22T12:47:00;8.40;;;4.28;;
66095;SDS011;53861;53.422;14.530;2023-06-22T12:49:28;6.63;;;3.70;;
66095;SDS011;53861;53.422;14.530;2023-06-22T12:51:55;7.97;;;4.13;;
66095;SDS011;53861;53.422;14.530;2023-06-22T12:54:23;7.40;;;3.80;;
66095;SDS011;53861;53.422;14.530;2023-06-22T12:56:50;7.43;;;3.60;;
66095;SDS011;53861;53.422;14.530;2023-06-22T12:59:21;12.57;;;3.55;;
66095;SDS011;53861;53.422;14.530;2023-06-22T13:01:48;6.28;;;3.28;;
66095;SDS011;53861;53.422;14.530;2023-06-22T13:04:15;6.18;;;3.33;;
66095;SDS011;53861;53.422;14.530;2023-06-22T13:06:43;7.88;;;3.72;;
66095;SDS011;53861;53.422;14.530;2023-06-22T13:09:13;8.25;;;3.60;;
66095;SDS011;53861;53.422;14.530;2023-06-22T13:11:41;6.07;;;3.25;;
66095;SDS011;53861;53.422;14.530;2023-06-22T13:14:08;5.57;;;3.40;;
66095;SDS011;53861;53.422;14.530;2023-06-22T13:16:37;8.73;;;4.45;;
66095;SDS011;53861;53.422;14.530;2023-06-22T13:19:04;5.78;;;3.60;;
66095;SDS011;53861;53.422;14.530;2023-06-22T13:21:32;6.50;;;3.50;;
66095;SDS011;53861;53.422;14.530;2023-06-22T13:23:59;7.75;;;3.95;;
66095;SDS011;53861;53.422;14.530;2023-06-22T13:26:28;6.15;;;3.50;;
66095;SDS011;53861;53.422;14.530;2023-06-22T13:28:55;6.60;;;3.67;;
66095;SDS011;53861;53.422;14.530;2023-06-22T13:31:23;8.10;;;3.30;;
66095;SDS011;53861;53.422;14.530;2023-06-22T13:33:52;11.15;;;3.88;;
66095;SDS011;53861;53.422;14.530;2023-06-22T13:36:19;6.97;;;3.10;;
66095;SDS011;53861;53.422;14.530;2023-06-22T13:38:47;6.50;;;3.50;;
66095;SDS011;53861;53.422;14.530;2023-06-22T13:41:14;7.55;;;3.60;;
66095;SDS011;53861;53.422;14.530;2023-06-22T13:43:41;6.90;;;3.30;;
66095;SDS011;53861;53.422;14.530;2023-06-22T13:46:09;8.93;;;3.70;;
66095;SDS011;53861;53.422;14.530;2023-06-22T13:48:36;8.52;;;3.40;;
66095;SDS011;53861;53.422;14.530;2023-06-22T13:51:05;6.35;;;3.90;;
66095;SDS011;53861;53.422;14.530;2023-06-22T13:53:32;6.07;;;3.30;;
66095;SDS011;53861;53.422;14.530;2023-06-22T13:55:59;6.50;;;3.50;;
66095;SDS011;53861;53.422;14.530;2023-06-22T13:58:27;7.65;;;3.63;;
66095;SDS011;53861;53.422;14.530;2023-06-22T14:00:54;8.10;;;3.40;;
66095;SDS011;53861;53.422;14.530;2023-06-22T14:03:21;6.90;;;3.63;;
66095;SDS011;53861;53.422;14.530;2023-06-22T14:05:49;7.82;;;3.55;;
66095;SDS011;53861;53.422;14.530;2023-06-22T14:08:23;10.57;;;6.88;;
66095;SDS011;53861;53.422;14.530;2023-06-22T14:10:51;9.82;;;3.80;;
66095;SDS011;53861;53.422;14.530;2023-06-22T14:13:19;9.80;;;3.78;;
66095;SDS011;53861;53.422;14.530;2023-06-22T14:15:46;6.97;;;3.80;;
66095;SDS011;53861;53.422;14.530;2023-06-22T14:18:21;7.88;;;3.80;;
66095;SDS011;53861;53.422;14.530;2023-06-22T14:20:49;5.07;;;3.80;;
66095;SDS011;53861;53.422;14.530;2023-06-22T14:23:16;8.93;;;3.80;;
66095;SDS011;53861;53.422;14.530;2023-06-22T14:25:45;6.68;;;3.70;;
66095;SDS011;53861;53.422;14.530;2023-06-22T14:28:12;7.30;;;4.00;;
66095;SDS011;53861;53.422;14.530;2023-06-22T14:30:39;9.85;;;4.50;;
66095;SDS011;53861;53.422;14.530;2023-06-22T14:33:07;8.80;;;3.90;;
66095;SDS011;53861;53.422;14.530;2023-06-22T14:35:34;11.15;;;4.28;;
66095;SDS011;53861;53.422;14.530;2023-06-22T14:38:01;7.97;;;4.00;;
66095;SDS011;53861;53.422;14.530;2023-06-22T14:40:29;9.55;;;4.05;;
66095;SDS011;53861;53.422;14.530;2023-06-22T14:42:57;10.57;;;4.20;;